Yorkana, Pennsylvania
Current Conditions -  °F | °C
As of 12:56 PM on Saturday 20 Dec 2014 (Local Time) from KMDT Reporting Station
Overcast Overcast  
Wind Chill: 34°   Ceiling: 3100
Heat Index: 34°   Visibility: 10mi
Dew Point: 21°   Wind: 3mph
Humidity: 59%   Direction: 260°W
Pressure: 30.26"   Gusts: NA
Location:  40.0152°N, 76.5974°W
Report Text: KMDT 201756Z 26003KT 10SM BKN031 OVC150 01/M06 A3026 RMK AO2 SLP250 VIRGA W-N T00111061 10011 21022 58015
Loading
Personal Weather Stations






























Interactive Weather Map New forecast layout! Learn more

10-Day Weather Forecast

Advertisements
Track Severe Weather on mobile